createdAt,value
2022-12-08T00:46:19.086Z,88.17
2022-12-08T00:51:26.475Z,88.63
2022-12-08T00:56:50.905Z,88.98
2022-12-08T01:02:08.007Z,88.07
2022-12-08T01:07:30.261Z,87.83
2022-12-08T01:12:36.395Z,87.93
2022-12-08T01:17:52.987Z,87.96
2022-12-08T01:22:59.245Z,87.85
2022-12-08T01:28:03.069Z,87.96
2022-12-08T01:33:09.037Z,88.84
2022-12-08T01:38:16.460Z,89.87
2022-12-08T01:43:25.079Z,90.19
2022-12-08T01:48:29.216Z,90.26
2022-12-08T01:53:48.545Z,90.60
2022-12-08T01:58:59.387Z,90.55
2022-12-08T02:04:16.222Z,90.97
2022-12-08T02:09:22.871Z,90.96
2022-12-08T02:14:29.678Z,91.47
2022-12-08T02:20:16.215Z,91.48
2022-12-08T02:25:38.753Z,92.22
2022-12-08T02:30:51.034Z,92.04
2022-12-08T02:36:22.333Z,92.33
2022-12-08T02:41:38.272Z,93.98
2022-12-08T02:46:53.130Z,94.14
2022-12-08T02:51:58.587Z,93.12
2022-12-08T02:57:44.847Z,93.43
2022-12-08T03:03:46.726Z,94.75
2022-12-08T03:09:07.625Z,93.68
2022-12-08T03:14:28.912Z,93.19
2022-12-08T03:19:53.456Z,92.28
2022-12-08T03:33:27.475Z,92.37
2022-12-08T03:46:04.456Z,90.67
2022-12-08T03:51:36.774Z,90.83
2022-12-08T04:09:47.064Z,90.02
2022-12-08T04:15:58.456Z,89.54
2022-12-08T04:21:16.649Z,89.37
2022-12-08T04:26:54.854Z,89.80
2022-12-08T04:44:05.209Z,88.89
2022-12-08T04:49:30.534Z,88.16
2022-12-08T04:54:33.973Z,87.88
2022-12-08T05:00:21.056Z,86.96
2022-12-08T05:20:50.728Z,86.53
2022-12-08T05:26:00.773Z,85.87
2022-12-08T05:31:00.536Z,85.57
2022-12-08T05:35:59.578Z,85.58
2022-12-08T05:40:58.739Z,85.73
2022-12-08T05:45:59.233Z,85.38
2022-12-08T05:50:58.141Z,85.09
2022-12-08T05:55:57.223Z,85.38
2022-12-08T06:00:59.095Z,85.56
2022-12-08T06:06:01.542Z,85.55
2022-12-08T06:11:03.615Z,86.31
2022-12-08T06:16:07.521Z,86.82
2022-12-08T06:21:13.384Z,86.26
2022-12-08T06:26:16.727Z,86.47
2022-12-08T06:31:22.671Z,87.79
2022-12-08T06:36:24.620Z,87.53
2022-12-08T06:41:24.193Z,87.35
2022-12-08T06:46:29.291Z,87.22
2022-12-08T06:51:28.453Z,87.39
2022-12-08T06:56:28.297Z,87.17
2022-12-08T07:01:34.933Z,86.59
2022-12-08T07:06:34.267Z,87.07
2022-12-08T07:11:35.792Z,86.89
2022-12-08T07:16:36.812Z,87.53
2022-12-08T07:21:35.912Z,86.70
2022-12-08T07:26:35.319Z,85.94
2022-12-08T07:31:36.219Z,85.47
2022-12-08T07:36:43.214Z,85.10
2022-12-08T07:42:45.385Z,84.82
2022-12-08T07:49:27.201Z,84.12
2022-12-08T10:36:24.014Z,85.11
2022-12-08T10:41:50.482Z,83.73
2022-12-08T10:54:58.561Z,82.87
2022-12-08T11:08:18.460Z,80.40
2022-12-08T11:13:23.424Z,79.20
2022-12-08T11:18:27.128Z,79.71
2022-12-08T11:23:28.192Z,79.63
2022-12-08T11:28:28.709Z,79.29
2022-12-08T11:33:29.399Z,79.41
2022-12-08T11:38:29.746Z,79.61
2022-12-08T11:43:41.052Z,79.53
2022-12-08T11:48:48.756Z,79.33
2022-12-08T11:53:59.120Z,79.06
2022-12-08T11:59:03.867Z,79.22
2022-12-08T12:04:17.208Z,80.87
2022-12-08T12:09:21.015Z,80.85
2022-12-08T12:14:44.793Z,79.52
2022-12-08T12:19:43.824Z,79.22
2022-12-08T12:24:47.746Z,80.39
2022-12-08T12:29:55.729Z,81.16
2022-12-08T12:34:58.560Z,80.58
2022-12-08T12:40:03.292Z,80.22
2022-12-08T12:45:29.553Z,79.63
2022-12-08T12:50:44.240Z,79.41
2022-12-08T12:55:55.350Z,79.78
2022-12-08T13:01:37.215Z,79.44
2022-12-08T13:06:42.950Z,79.21
2022-12-08T13:11:49.911Z,79.77
2022-12-08T13:16:56.385Z,80.43
2022-12-08T13:21:55.408Z,81.31
2022-12-08T13:27:35.638Z,82.10
2022-12-08T13:33:17.583Z,81.35
2022-12-08T13:38:21.050Z,81.08
2022-12-08T13:43:50.981Z,82.19
2022-12-08T13:59:47.058Z,81.94
2022-12-08T14:10:14.362Z,89.78
2022-12-08T14:15:17.902Z,83.04
2022-12-08T14:20:25.629Z,83.32
2022-12-08T14:25:25.659Z,84.06
2022-12-08T14:30:30.688Z,84.37
2022-12-08T14:35:33.485Z,84.64
2022-12-08T14:40:35.462Z,84.95
2022-12-08T14:45:35.585Z,84.75
2022-12-08T14:50:43.613Z,84.19
2022-12-08T14:55:44.901Z,84.62
2022-12-08T15:00:48.452Z,87.38
2022-12-08T15:05:56.889Z,86.51
2022-12-08T15:11:15.313Z,86.71
2022-12-08T15:16:28.358Z,87.06
2022-12-08T15:21:36.990Z,86.93
2022-12-08T15:26:41.319Z,86.45
2022-12-08T15:31:41.140Z,86.39
2022-12-08T15:36:43.181Z,87.06
2022-12-08T15:41:42.332Z,87.57
2022-12-08T15:46:41.620Z,87.57
2022-12-08T15:51:42.603Z,87.57
2022-12-08T15:57:17.195Z,87.52
2022-12-08T16:02:08.329Z,87.98
2022-12-08T16:07:22.534Z,87.75
2022-12-08T16:18:04.525Z,88.00
2022-12-08T16:23:19.728Z,87.34
2022-12-08T16:28:53.290Z,100.00
2022-12-08T16:33:52.646Z,100.00
2022-12-08T16:38:53.707Z,96.40
2022-12-08T16:43:53.705Z,93.83
2022-12-08T16:48:56.942Z,90.01
2022-12-08T16:53:58.703Z,88.03
2022-12-08T16:59:01.256Z,88.17
2022-12-08T17:09:31.142Z,89.29
2022-12-08T17:14:35.120Z,89.13
2022-12-08T17:19:35.850Z,89.21
2022-12-08T17:24:52.031Z,88.64
2022-12-08T17:29:51.349Z,88.44
2022-12-08T17:34:50.460Z,88.44
2022-12-08T17:39:51.044Z,88.38
2022-12-08T17:44:51.349Z,88.34
2022-12-08T17:49:54.274Z,88.21
2022-12-08T17:55:00.516Z,88.46
2022-12-08T18:00:09.129Z,88.21
2022-12-08T18:05:13.021Z,88.25
2022-12-08T18:10:14.130Z,89.53
2022-12-08T18:15:20.819Z,90.07
2022-12-08T18:20:21.622Z,90.05
2022-12-08T18:25:25.073Z,89.67
2022-12-08T18:30:26.909Z,89.30
2022-12-08T18:35:27.363Z,88.68
2022-12-08T18:40:28.542Z,88.40
2022-12-08T18:45:27.766Z,88.13
2022-12-08T18:50:30.240Z,87.77
2022-12-08T18:55:33.719Z,87.61
2022-12-08T19:00:32.897Z,88.29
2022-12-08T19:05:32.253Z,88.45
2022-12-08T19:10:32.490Z,88.93
2022-12-08T19:15:33.458Z,88.71
2022-12-08T19:20:32.789Z,88.40
2022-12-08T19:25:35.401Z,90.65
2022-12-08T19:30:39.778Z,89.69
2022-12-08T19:35:49.048Z,89.28
2022-12-08T19:41:08.850Z,89.47
2022-12-08T19:46:19.421Z,89.99
2022-12-08T19:51:20.922Z,89.50
2022-12-08T19:56:20.133Z,89.76
2022-12-08T20:01:21.925Z,90.32
2022-12-08T20:06:32.670Z,90.02
2022-12-08T20:11:31.892Z,89.73
2022-12-08T20:16:45.971Z,89.49
2022-12-08T20:22:17.924Z,89.27
2022-12-08T20:27:17.203Z,89.23
2022-12-08T20:32:18.835Z,89.65
2022-12-08T20:37:20.612Z,89.10
2022-12-08T20:42:24.261Z,88.83
2022-12-08T20:47:27.876Z,88.98
2022-12-08T20:52:30.720Z,88.71
2022-12-08T20:57:30.073Z,88.54
2022-12-08T21:02:33.685Z,88.74
2022-12-08T21:07:33.957Z,88.09
2022-12-08T21:12:33.692Z,88.07
2022-12-08T21:17:36.864Z,88.33
2022-12-08T21:22:36.171Z,88.13
2022-12-08T21:27:35.440Z,87.53
2022-12-08T21:32:36.701Z,87.30
2022-12-08T21:37:38.361Z,88.40
2022-12-08T21:42:47.256Z,89.69
2022-12-08T21:47:50.076Z,89.25
2022-12-08T21:52:50.457Z,88.34
2022-12-08T21:58:09.365Z,87.84
2022-12-08T22:03:14.218Z,87.77
2022-12-08T22:09:29.740Z,87.92
2022-12-08T22:14:29.487Z,87.37
2022-12-08T22:19:31.945Z,87.62
2022-12-08T22:24:32.552Z,87.64
2022-12-08T22:29:32.327Z,88.22
2022-12-08T22:34:42.224Z,88.53
2022-12-08T22:39:50.591Z,88.12
2022-12-08T22:44:49.766Z,87.46
2022-12-08T22:49:53.576Z,87.29
2022-12-08T22:54:52.791Z,87.86
2022-12-08T22:59:51.744Z,87.29
2022-12-08T23:04:56.750Z,87.14
2022-12-08T23:09:56.489Z,86.96
2022-12-08T23:14:55.572Z,87.75
2022-12-08T23:19:58.795Z,88.75
2022-12-08T23:24:58.322Z,88.07
2022-12-08T23:29:58.116Z,87.72
2022-12-08T23:34:59.011Z,88.33
2022-12-08T23:39:58.180Z,89.23
2022-12-08T23:44:57.511Z,88.81
2022-12-08T23:49:59.035Z,88.23
2022-12-08T23:54:59.887Z,87.47
2022-12-08T23:59:59.299Z,89.61
